Time;durP1;ratioP1;P1;durP2;ratioP2;P2;SDS_P1;SDS_P2;PMS_P1;PMS_P2;Temp;Humidity;BMP_temperature;BMP_pressure;BME280_temperature;BME280_humidity;BME280_pressure;Samples;Min_cycle;Max_cycle;Signal;HPM_P1;HPM_P2
2023/06/05 00:00:07;;;;;;;4.05;2.47;;;;;19.50;102195.00;;;;5091495;28;20198;-76
2023/06/05 00:02:34;;;;;;;2.97;1.63;;;;;19.50;102197.00;;;;5089532;28;20308;-76
2023/06/05 00:05:02;;;;;;;3.05;1.75;;;;;19.40;102189.00;;;;5091830;28;20191;-77
2023/06/05 00:07:31;;;;;;;3.75;1.80;;;;;19.40;102188.00;;;;5089898;28;20187;-76
2023/06/05 00:09:58;;;;;;;2.75;1.75;;;;;19.40;102194.00;;;;5090538;28;20209;-77
2023/06/05 00:12:26;;;;;;;3.85;2.28;;;;;19.30;102186.00;;;;5088547;28;20195;-76
2023/06/05 00:14:54;;;;;;;3.35;2.10;;;;;19.30;102184.00;;;;5090096;28;20202;-76
2023/06/05 00:17:21;;;;;;;2.55;1.63;;;;;19.30;102188.00;;;;5089995;28;20195;-76
2023/06/05 00:19:48;;;;;;;2.55;2.05;;;;;19.30;102186.00;;;;5090224;28;20186;-76
2023/06/05 00:22:15;;;;;;;3.00;2.00;;;;;19.20;102188.00;;;;5090510;28;20642;-76
2023/06/05 00:24:44;;;;;;;3.53;2.42;;;;;19.20;102188.00;;;;5090466;28;20198;-76
2023/06/05 00:27:11;;;;;;;2.78;1.67;;;;;19.20;102186.00;;;;5089528;28;20198;-76
2023/06/05 00:29:39;;;;;;;3.10;2.10;;;;;19.10;102191.00;;;;5090942;28;20202;-76
2023/06/05 00:32:06;;;;;;;2.58;2.10;;;;;19.10;102193.00;;;;5084034;28;20198;-76
2023/06/05 00:34:34;;;;;;;3.20;2.33;;;;;19.10;102191.00;;;;5089176;28;20226;-77
2023/06/05 00:37:01;;;;;;;3.05;1.85;;;;;19.10;102190.00;;;;5085355;28;20198;-76
2023/06/05 00:39:28;;;;;;;5.90;2.15;;;;;19.00;102192.00;;;;5090600;28;20195;-76
2023/06/05 00:41:57;;;;;;;3.95;2.22;;;;;19.00;102195.00;;;;5090308;28;20210;-76
2023/06/05 00:44:24;;;;;;;4.88;2.60;;;;;19.00;102197.00;;;;5090550;28;20206;-76
2023/06/05 00:46:53;;;;;;;2.55;2.22;;;;;19.00;102201.00;;;;5088990;28;20210;-76
2023/06/05 00:49:21;;;;;;;2.28;1.88;;;;;19.00;102195.00;;;;5088260;28;20217;-76
2023/06/05 00:51:50;;;;;;;2.20;1.98;;;;;18.90;102203.00;;;;5088171;28;20198;-76
2023/06/05 00:54:18;;;;;;;2.78;2.47;;;;;18.90;102200.00;;;;5088937;28;20571;-76
2023/06/05 00:56:46;;;;;;;2.10;1.90;;;;;18.90;102201.00;;;;5087627;28;20283;-76
2023/06/05 00:59:16;;;;;;;8.90;2.53;;;;;18.80;102195.00;;;;5082462;28;20567;-77
2023/06/05 01:01:45;;;;;;;2.88;2.50;;;;;18.80;102198.00;;;;5087004;28;20202;-76
2023/06/05 01:04:12;;;;;;;3.45;2.25;;;;;18.80;102193.00;;;;5088142;28;20282;-76
2023/06/05 01:06:40;;;;;;;2.75;2.35;;;;;18.80;102194.00;;;;5085206;28;20209;-76
2023/06/05 01:09:10;;;;;;;2.70;1.95;;;;;18.80;102194.00;;;;5087698;28;20690;-76
2023/06/05 01:11:44;;;;;;;2.72;2.03;;;;;18.70;102192.00;;;;5087639;28;20205;-76
2023/06/05 01:14:20;;;;;;;5.03;2.42;;;;;18.70;102191.00;;;;5081478;28;20220;-76
2023/06/05 01:16:53;;;;;;;4.65;2.58;;;;;18.70;102189.00;;;;5087602;28;20202;-76
2023/06/05 01:19:24;;;;;;;4.90;2.60;;;;;18.70;102194.00;;;;5083109;28;20734;-76
2023/06/05 01:21:52;;;;;;;3.38;2.22;;;;;18.70;102188.00;;;;5084453;28;20546;-76
2023/06/05 01:24:22;;;;;;;3.20;2.20;;;;;18.70;102185.00;;;;5086618;28;20191;-76
2023/06/05 01:27:03;;;;;;;3.60;2.42;;;;;18.60;102171.00;;;;5088019;28;20207;-76
2023/06/05 01:29:38;;;;;;;3.90;3.03;;;;;18.60;102177.00;;;;5079978;28;20266;-77
2023/06/05 01:32:21;;;;;;;2.42;2.17;;;;;18.60;102171.00;;;;5087379;28;20198;-76
2023/06/05 01:34:53;;;;;;;3.78;2.33;;;;;18.60;102167.00;;;;5088323;28;20287;-76
2023/06/05 01:37:24;;;;;;;4.22;2.60;;;;;18.50;102170.00;;;;5085471;28;20190;-76
2023/06/05 01:39:56;;;;;;;4.10;2.58;;;;;18.50;102164.00;;;;5083170;28;20207;-76
2023/06/05 01:42:25;;;;;;;3.38;2.60;;;;;18.40;102161.00;;;;5088072;28;20229;-76
2023/06/05 01:44:53;;;;;;;4.68;2.78;;;;;18.40;102163.00;;;;5088742;28;20202;-76
2023/06/05 01:47:22;;;;;;;2.70;2.22;;;;;18.40;102158.00;;;;5087642;28;20206;-76
2023/06/05 01:49:49;;;;;;;4.15;2.90;;;;;18.40;102152.00;;;;5085530;28;20222;-76
2023/06/05 01:52:17;;;;;;;4.13;2.83;;;;;18.40;102162.00;;;;5086882;28;20202;-76
2023/06/05 01:54:46;;;;;;;4.22;2.90;;;;;18.30;102157.00;;;;5088128;28;20206;-76
2023/06/05 01:57:14;;;;;;;3.38;2.90;;;;;18.30;102150.00;;;;5088065;28;20238;-77
2023/06/05 01:59:43;;;;;;;4.97;3.33;;;;;18.30;102162.00;;;;5084502;28;20211;-76
2023/06/05 02:02:11;;;;;;;3.13;2.58;;;;;18.30;102155.00;;;;5084889;28;20191;-76
2023/06/05 02:04:39;;;;;;;2.92;2.60;;;;;18.30;102157.00;;;;5086481;28;20198;-76
2023/06/05 02:07:07;;;;;;;2.72;2.40;;;;;18.20;102157.00;;;;5084493;28;20199;-75
2023/06/05 02:09:34;;;;;;;3.42;2.65;;;;;18.20;102152.00;;;;5086790;28;20206;-76
2023/06/05 02:12:03;;;;;;;4.63;2.17;;;;;18.20;102159.00;;;;5089061;28;20193;-76
2023/06/05 02:14:35;;;;;;;5.05;3.15;;;;;18.20;102150.00;;;;5086962;28;20305;-77
2023/06/05 02:17:04;;;;;;;3.28;2.83;;;;;18.20;102156.00;;;;5081448;28;20647;-76
2023/06/05 02:19:31;;;;;;;3.88;2.40;;;;;18.10;102146.00;;;;5084595;28;20671;-76
2023/06/05 02:21:59;;;;;;;3.55;2.38;;;;;18.10;102144.00;;;;5087332;28;20194;-76
2023/06/05 02:24:27;;;;;;;2.90;2.22;;;;;18.10;102147.00;;;;5088269;28;20214;-76
2023/06/05 02:26:54;;;;;;;4.05;2.88;;;;;18.10;102150.00;;;;5080731;28;20190;-75
2023/06/05 02:29:21;;;;;;;4.78;2.50;;;;;18.10;102145.00;;;;5086145;28;20191;-76
2023/06/05 02:31:50;;;;;;;3.58;2.85;;;;;18.00;102147.00;;;;5087937;28;20195;-76
2023/06/05 02:34:17;;;;;;;6.00;3.10;;;;;18.00;102135.00;;;;5088111;28;20226;-76
2023/06/05 02:36:45;;;;;;;5.18;2.78;;;;;18.00;102138.00;;;;5086781;28;20285;-75
2023/06/05 02:39:12;;;;;;;4.72;2.80;;;;;18.00;102148.00;;;;5087764;28;20275;-76
2023/06/05 02:41:40;;;;;;;3.78;3.20;;;;;18.00;102140.00;;;;5088062;28;20198;-76
2023/06/05 02:44:07;;;;;;;4.70;3.28;;;;;18.00;102138.00;;;;5079933;28;20226;-76
2023/06/05 02:46:34;;;;;;;3.63;2.63;;;;;17.90;102148.00;;;;5079734;28;20194;-75
2023/06/05 02:49:03;;;;;;;3.33;2.45;;;;;17.90;102140.00;;;;5086912;28;20209;-76
2023/06/05 02:51:30;;;;;;;3.55;3.20;;;;;17.90;102142.00;;;;5087699;28;20194;-76
2023/06/05 02:53:57;;;;;;;3.33;2.78;;;;;17.90;102132.00;;;;5088152;28;20198;-76
2023/06/05 02:56:26;;;;;;;3.85;2.80;;;;;17.90;102132.00;;;;5078978;28;20266;-76
2023/06/05 02:58:56;;;;;;;6.35;3.17;;;;;17.80;102134.00;;;;5085285;28;20195;-76
2023/06/05 03:01:25;;;;;;;3.72;2.50;;;;;17.80;102128.00;;;;5083837;28;20203;-76
2023/06/05 03:03:53;;;;;;;4.35;2.95;;;;;17.80;102126.00;;;;5086651;28;20633;-75
2023/06/05 03:06:27;;;;;;;4.88;3.45;;;;;17.80;102121.00;;;;5083927;28;20198;-76
2023/06/05 03:08:56;;;;;;;4.45;2.97;;;;;17.80;102121.00;;;;5084515;28;20703;-76
2023/06/05 03:11:25;;;;;;;4.05;3.08;;;;;17.70;102125.00;;;;5078546;28;20198;-76
2023/06/05 03:13:52;;;;;;;6.80;3.03;;;;;17.70;102112.00;;;;5079078;28;20212;-76
2023/06/05 03:16:22;;;;;;;4.05;2.95;;;;;17.70;102111.00;;;;5082529;28;20195;-76
2023/06/05 03:18:50;;;;;;;5.28;2.75;;;;;17.70;102111.00;;;;5086515;28;20194;-76
2023/06/05 03:21:17;;;;;;;4.72;3.45;;;;;17.70;102110.00;;;;5084309;28;20202;-76
2023/06/05 03:23:45;;;;;;;4.60;3.00;;;;;17.60;102115.00;;;;5085854;28;20222;-76
2023/06/05 03:26:13;;;;;;;4.50;2.85;;;;;17.60;102119.00;;;;5085066;28;20190;-76
2023/06/05 03:28:41;;;;;;;4.13;3.33;;;;;17.60;102119.00;;;;5084692;28;20213;-76
2023/06/05 03:31:09;;;;;;;3.50;3.03;;;;;17.60;102117.00;;;;5082637;28;20196;-77
2023/06/05 03:33:36;;;;;;;5.40;3.42;;;;;17.60;102117.00;;;;5084680;28;20225;-76
2023/06/05 03:36:05;;;;;;;6.15;3.42;;;;;17.60;102116.00;;;;5086101;28;20194;-77
2023/06/05 03:38:32;;;;;;;4.15;2.92;;;;;17.60;102110.00;;;;5086524;28;20613;-76
2023/06/05 03:41:01;;;;;;;4.97;3.58;;;;;17.60;102115.00;;;;5084286;28;20198;-76
2023/06/05 03:43:28;;;;;;;4.25;3.70;;;;;17.60;102112.00;;;;5085735;28;20222;-76
2023/06/05 03:45:55;;;;;;;4.75;3.30;;;;;17.60;102108.00;;;;5086335;28;20218;-76
2023/06/05 03:48:23;;;;;;;4.47;3.53;;;;;17.60;102107.00;;;;5086782;28;20230;-76
2023/06/05 03:50:51;;;;;;;3.95;3.17;;;;;17.50;102106.00;;;;5086278;28;20190;-76
2023/06/05 03:53:19;;;;;;;5.72;3.63;;;;;17.50;102102.00;;;;5086857;28;20192;-77
2023/06/05 03:55:46;;;;;;;4.90;3.50;;;;;17.50;102103.00;;;;5085930;28;20214;-76
2023/06/05 03:58:16;;;;;;;5.22;3.25;;;;;17.50;102106.00;;;;5085837;28;20887;-76
2023/06/05 04:00:44;;;;;;;5.25;3.60;;;;;17.50;102102.00;;;;5085828;28;20197;-76
2023/06/05 04:03:13;;;;;;;6.43;3.75;;;;;17.50;102114.00;;;;5086807;28;20240;-76
2023/06/05 04:05:41;;;;;;;3.53;3.00;;;;;17.50;102105.00;;;;5086119;28;20209;-76
2023/06/05 04:08:09;;;;;;;4.03;3.33;;;;;17.40;102107.00;;;;5078359;28;20186;-76
2023/06/05 04:10:37;;;;;;;5.13;3.70;;;;;17.40;102113.00;;;;5084582;28;20703;-76
2023/06/05 04:13:05;;;;;;;5.20;3.50;;;;;17.40;102108.00;;;;5082204;28;20239;-76
2023/06/05 04:15:34;;;;;;;4.07;3.20;;;;;17.40;102108.00;;;;5079015;28;20230;-76
2023/06/05 04:18:02;;;;;;;5.70;3.55;;;;;17.40;102099.00;;;;5084742;28;20281;-76
2023/06/05 04:20:29;;;;;;;7.70;3.03;;;;;17.40;102114.00;;;;5086437;28;20190;-76
2023/06/05 04:22:56;;;;;;;4.13;3.15;;;;;17.40;102111.00;;;;5076136;28;20211;-76
2023/06/05 04:25:28;;;;;;;5.10;3.45;;;;;17.40;102107.00;;;;5084929;28;20571;-76
2023/06/05 04:27:57;;;;;;;6.68;3.30;;;;;17.40;102113.00;;;;5085976;28;20190;-76
2023/06/05 04:30:24;;;;;;;4.00;3.10;;;;;17.40;102111.00;;;;5076068;28;20211;-76
2023/06/05 04:32:54;;;;;;;4.30;3.60;;;;;17.30;102116.00;;;;5083111;28;20226;-76
2023/06/05 04:35:22;;;;;;;4.32;3.60;;;;;17.40;102116.00;;;;5085716;28;20285;-76
2023/06/05 04:37:50;;;;;;;5.28;3.53;;;;;17.40;102120.00;;;;5085975;28;20292;-77
2023/06/05 04:40:19;;;;;;;6.85;3.78;;;;;17.40;102127.00;;;;5085503;28;20198;-76
2023/06/05 04:42:47;;;;;;;4.35;3.65;;;;;17.40;102129.00;;;;5078874;28;20203;-77
2023/06/05 04:45:16;;;;;;;6.90;3.50;;;;;17.40;102129.00;;;;5088625;28;20217;-77
2023/06/05 04:47:44;;;;;;;5.22;3.42;;;;;17.40;102135.00;;;;5080657;28;20209;-76
2023/06/05 04:50:25;;;;;;;4.68;3.50;;;;;17.30;102130.00;;;;5090386;28;20267;-77
2023/06/05 04:52:53;;;;;;;6.20;3.45;;;;;17.40;102128.00;;;;5088571;28;20206;-77
2023/06/05 04:55:21;;;;;;;4.05;3.25;;;;;17.50;102132.00;;;;5088699;28;20725;-77
2023/06/05 04:57:48;;;;;;;5.55;3.47;;;;;17.50;102135.00;;;;5080512;28;20766;-76
2023/06/05 05:00:16;;;;;;;5.78;4.07;;;;;17.50;102127.00;;;;5088326;28;20213;-77
2023/06/05 05:02:44;;;;;;;5.72;3.90;;;;;17.50;102127.00;;;;5088352;28;20190;-76
2023/06/05 05:05:13;;;;;;;6.68;3.72;;;;;17.50;102132.00;;;;5089282;28;20700;-77
2023/06/05 05:07:41;;;;;;;4.38;3.45;;;;;17.60;102130.00;;;;5087482;28;20202;-76
2023/06/05 05:10:09;;;;;;;5.55;3.97;;;;;17.60;102135.00;;;;5087546;28;20205;-76
2023/06/05 05:12:37;;;;;;;4.85;4.03;;;;;17.60;102131.00;;;;5087734;28;20198;-77
2023/06/05 05:15:06;;;;;;;5.20;4.30;;;;;17.70;102133.00;;;;5078402;28;20187;-76
2023/06/05 05:17:33;;;;;;;7.18;4.90;;;;;17.70;102137.00;;;;5078652;28;20194;-77
2023/06/05 05:20:00;;;;;;;6.00;3.80;;;;;17.70;102145.00;;;;5087529;28;20198;-77
2023/06/05 05:22:29;;;;;;;5.93;3.40;;;;;17.80;102130.00;;;;5088266;28;20194;-76
2023/06/05 05:24:56;;;;;;;4.72;3.20;;;;;17.80;102128.00;;;;5086928;28;20230;-77
2023/06/05 05:27:24;;;;;;;5.20;3.63;;;;;17.90;102128.00;;;;5087814;28;20198;-76
2023/06/05 05:29:51;;;;;;;6.53;3.78;;;;;17.90;102132.00;;;;5088319;28;20196;-76
2023/06/05 05:32:19;;;;;;;6.18;3.53;;;;;18.00;102127.00;;;;5078848;28;20726;-76
2023/06/05 05:34:47;;;;;;;4.97;3.78;;;;;18.00;102137.00;;;;5080687;28;20198;-77
2023/06/05 05:37:14;;;;;;;5.88;3.63;;;;;18.10;102138.00;;;;5083062;28;20217;-77
2023/06/05 05:39:43;;;;;;;4.18;3.40;;;;;18.10;102133.00;;;;5086511;28;20205;-76
2023/06/05 05:42:10;;;;;;;8.32;3.95;;;;;18.20;102138.00;;;;5088152;28;20206;-77
2023/06/05 05:44:41;;;;;;;5.63;3.33;;;;;18.30;102141.00;;;;5085392;28;20726;-76
2023/06/05 05:47:09;;;;;;;4.55;3.42;;;;;18.30;102143.00;;;;5086037;28;20201;-76
2023/06/05 05:49:36;;;;;;;3.97;3.00;;;;;18.30;102142.00;;;;5084654;28;20195;-77
2023/06/05 05:52:04;;;;;;;4.95;3.35;;;;;18.40;102143.00;;;;5081451;28;20211;-77
2023/06/05 05:54:31;;;;;;;4.15;3.25;;;;;18.40;102142.00;;;;5088674;28;20190;-77
2023/06/05 05:57:00;;;;;;;6.28;3.63;;;;;18.40;102141.00;;;;5087420;28;20710;-76
2023/06/05 05:59:29;;;;;;;4.53;3.45;;;;;18.50;102142.00;;;;5081794;28;20694;-77
2023/06/05 06:01:58;;;;;;;5.82;3.33;;;;;18.50;102140.00;;;;5081646;28;20210;-77
2023/06/05 06:04:26;;;;;;;4.85;3.28;;;;;18.60;102147.00;;;;5077458;28;20622;-77
2023/06/05 06:06:56;;;;;;;8.85;3.85;;;;;18.60;102145.00;;;;5084900;28;20215;-78
2023/06/05 06:09:24;;;;;;;5.40;3.75;;;;;18.70;102146.00;;;;5086969;28;20275;-78
2023/06/05 06:11:55;;;;;;;4.55;3.40;;;;;18.80;102148.00;;;;5085774;28;20206;-79
2023/06/05 06:14:24;;;;;;;5.38;3.20;;;;;18.80;102148.00;;;;5087044;28;20201;-78
2023/06/05 06:16:53;;;;;;;5.65;3.47;;;;;18.90;102140.00;;;;5087349;28;20214;-79
2023/06/05 06:19:23;;;;;;;4.85;3.60;;;;;19.00;102142.00;;;;5087677;28;20195;-78
2023/06/05 06:21:51;;;;;;;6.55;3.20;;;;;19.00;102144.00;;;;5081544;28;20698;-78
2023/06/05 06:24:19;;;;;;;7.50;3.40;;;;;19.10;102151.00;;;;5083661;28;20565;-79
2023/06/05 06:26:47;;;;;;;5.28;3.53;;;;;19.20;102155.00;;;;5087668;28;20921;-79
2023/06/05 06:29:16;;;;;;;4.15;3.45;;;;;19.20;102150.00;;;;5087491;28;20202;-79
2023/06/05 06:31:45;;;;;;;4.90;4.00;;;;;19.30;102149.00;;;;5087035;28;20231;-78
2023/06/05 06:34:12;;;;;;;6.72;4.00;;;;;19.30;102151.00;;;;5087265;28;20222;-79
2023/06/05 06:36:40;;;;;;;6.10;3.50;;;;;19.30;102147.00;;;;5082441;28;20209;-78
2023/06/05 06:39:08;;;;;;;5.40;3.08;;;;;19.40;102157.00;;;;5085432;28;20210;-79
2023/06/05 06:41:36;;;;;;;4.57;3.10;;;;;19.50;102152.00;;;;5084336;28;20346;-79
2023/06/05 06:44:03;;;;;;;7.18;4.20;;;;;19.50;102161.00;;;;5087786;28;20218;-78
2023/06/05 06:46:31;;;;;;;5.28;3.75;;;;;19.60;102150.00;;;;5086374;28;20202;-78
2023/06/05 06:48:59;;;;;;;4.28;3.10;;;;;19.70;102146.00;;;;5086952;28;20210;-78
2023/06/05 06:51:27;;;;;;;5.45;3.70;;;;;19.80;102142.00;;;;5087485;28;20199;-78
2023/06/05 06:53:54;;;;;;;4.22;3.45;;;;;19.90;102157.00;;;;5086904;28;20683;-79
2023/06/05 06:56:21;;;;;;;5.38;3.72;;;;;19.90;102159.00;;;;5086585;28;20202;-79
2023/06/05 06:58:49;;;;;;;6.68;3.47;;;;;20.00;102158.00;;;;5084609;28;20222;-78
2023/06/05 07:01:19;;;;;;;5.07;3.65;;;;;20.10;102169.00;;;;5085665;28;20239;-78
2023/06/05 07:03:46;;;;;;;8.45;3.90;;;;;20.10;102155.00;;;;5079913;28;20293;-78
2023/06/05 07:06:15;;;;;;;3.95;3.50;;;;;20.10;102168.00;;;;5086943;28;20632;-77
2023/06/05 07:08:42;;;;;;;5.45;3.90;;;;;20.20;102172.00;;;;5082732;28;20649;-78
2023/06/05 07:11:10;;;;;;;5.65;3.40;;;;;20.20;102172.00;;;;5084747;28;20608;-78
2023/06/05 07:13:37;;;;;;;4.57;3.20;;;;;20.30;102178.00;;;;5084493;28;20210;-79
2023/06/05 07:16:04;;;;;;;3.95;3.05;;;;;20.30;102179.00;;;;5079324;28;20199;-79
2023/06/05 07:18:32;;;;;;;6.07;3.75;;;;;20.40;102176.00;;;;5075413;28;20194;-77
2023/06/05 07:20:59;;;;;;;3.97;2.70;;;;;20.50;102167.00;;;;5081891;28;20202;-78
2023/06/05 07:23:28;;;;;;;6.03;5.03;;;;;20.60;102167.00;;;;5079967;28;20195;-77
2023/06/05 07:25:56;;;;;;;5.93;4.10;;;;;20.70;102170.00;;;;5079033;28;20241;-77
2023/06/05 07:28:24;;;;;;;5.32;3.72;;;;;20.80;102171.00;;;;5084444;28;20277;-77
2023/06/05 07:30:51;;;;;;;5.45;3.55;;;;;20.80;102164.00;;;;5078372;28;20194;-77
2023/06/05 07:33:20;;;;;;;4.95;3.42;;;;;20.90;102167.00;;;;5075469;28;20240;-77
2023/06/05 07:35:48;;;;;;;3.72;3.30;;;;;21.00;102170.00;;;;5082266;28;20194;-77
2023/06/05 07:38:15;;;;;;;3.63;3.03;;;;;21.10;102173.00;;;;5086062;28;20278;-78
2023/06/05 07:40:44;;;;;;;3.65;2.83;;;;;21.20;102171.00;;;;5083781;28;20201;-78
2023/06/05 07:43:14;;;;;;;6.50;3.97;;;;;21.30;102173.00;;;;5081349;28;20206;-77
2023/06/05 07:45:41;;;;;;;4.85;2.63;;;;;21.40;102174.00;;;;5080688;28;20240;-79
2023/06/05 07:48:09;;;;;;;4.32;2.97;;;;;21.50;102169.00;;;;5084146;28;20198;-78
2023/06/05 07:50:36;;;;;;;3.50;3.08;;;;;21.50;102172.00;;;;5085328;28;20202;-78
2023/06/05 07:53:04;;;;;;;3.75;2.20;;;;;21.60;102165.00;;;;5083769;28;20198;-76
2023/06/05 07:55:31;;;;;;;4.03;2.67;;;;;21.70;102180.00;;;;5083198;28;20202;-77
2023/06/05 07:58:00;;;;;;;3.20;2.88;;;;;21.80;102172.00;;;;5080593;28;20225;-77
2023/06/05 08:00:28;;;;;;;5.63;3.35;;;;;22.00;102182.00;;;;5080980;28;20618;-77
2023/06/05 08:02:57;;;;;;;5.70;3.45;;;;;22.00;102170.00;;;;5081084;28;20194;-76
2023/06/05 08:05:24;;;;;;;3.20;2.78;;;;;22.10;102179.00;;;;5084059;28;20245;-77
2023/06/05 08:07:51;;;;;;;4.53;2.92;;;;;22.20;102181.00;;;;5084967;28;20205;-77
2023/06/05 08:10:19;;;;;;;3.65;3.08;;;;;22.30;102180.00;;;;5076794;28;20207;-79
2023/06/05 08:12:46;;;;;;;3.70;3.10;;;;;22.40;102183.00;;;;5080502;28;20198;-78
2023/06/05 08:15:15;;;;;;;4.60;3.10;;;;;22.40;102190.00;;;;5081568;28;20612;-77
2023/06/05 08:17:42;;;;;;;4.32;2.58;;;;;22.60;102178.00;;;;5083380;28;20198;-77
2023/06/05 08:20:11;;;;;;;3.67;2.85;;;;;22.60;102174.00;;;;5084895;28;20194;-78
2023/06/05 08:22:40;;;;;;;3.30;2.72;;;;;22.70;102163.00;;;;5083036;28;20240;-77
2023/06/05 08:25:08;;;;;;;5.70;3.60;;;;;22.80;102171.00;;;;5084756;28;20309;-77
2023/06/05 08:27:35;;;;;;;5.78;2.85;;;;;22.80;102167.00;;;;5088621;28;20194;-78
2023/06/05 08:30:03;;;;;;;4.13;3.70;;;;;23.00;102163.00;;;;5084431;28;20365;-78
2023/06/05 08:32:32;;;;;;;4.07;3.05;;;;;23.00;102165.00;;;;5084059;28;20248;-78
2023/06/05 08:34:59;;;;;;;4.05;3.15;;;;;23.10;102161.00;;;;5088273;28;20198;-77
2023/06/05 08:37:28;;;;;;;3.25;2.95;;;;;23.10;102162.00;;;;5087707;28;20198;-77
2023/06/05 08:39:58;;;;;;;4.55;3.33;;;;;23.20;102167.00;;;;5084632;28;20220;-78
2023/06/05 08:42:28;;;;;;;4.60;3.13;;;;;23.20;102163.00;;;;5082440;28;20201;-78
2023/06/05 08:44:55;;;;;;;3.45;3.03;;;;;23.30;102160.00;;;;5086965;28;20218;-80
2023/06/05 08:47:26;;;;;;;4.60;3.10;;;;;23.40;102160.00;;;;5081692;28;20206;-79
2023/06/05 08:49:56;;;;;;;4.13;2.95;;;;;23.50;102154.00;;;;5086250;28;20198;-80
2023/06/05 08:52:26;;;;;;;4.68;3.78;;;;;23.60;102164.00;;;;5081406;28;20656;-79
2023/06/05 08:54:54;;;;;;;3.78;3.15;;;;;23.60;102162.00;;;;5080832;28;20190;-79
2023/06/05 08:57:22;;;;;;;9.40;3.65;;;;;23.80;102163.00;;;;5082084;28;22096;-81
2023/06/05 08:59:51;;;;;;;5.32;3.60;;;;;23.80;102165.00;;;;5082466;28;20209;-80
2023/06/05 09:02:19;;;;;;;5.65;3.88;;;;;24.00;102164.00;;;;5084257;28;20228;-80
2023/06/05 09:04:47;;;;;;;4.25;3.08;;;;;24.10;102160.00;;;;5083624;28;20226;-81
2023/06/05 09:07:15;;;;;;;4.07;3.03;;;;;24.20;102152.00;;;;5087756;28;20198;-80
2023/06/05 09:09:44;;;;;;;5.35;3.22;;;;;24.20;102153.00;;;;5089766;28;20198;-81
2023/06/05 09:12:13;;;;;;;4.90;3.40;;;;;24.30;102152.00;;;;5084074;28;20198;-80
2023/06/05 09:14:40;;;;;;;2.97;2.53;;;;;24.40;102144.00;;;;5086774;28;20198;-80
2023/06/05 09:17:14;;;;;;;4.68;2.35;;;;;24.50;102147.00;;;;5083988;28;20217;-80
2023/06/05 09:19:45;;;;;;;3.17;2.60;;;;;24.60;102148.00;;;;5082582;28;20715;-81
2023/06/05 09:22:14;;;;;;;2.97;2.67;;;;;24.70;102144.00;;;;5086399;28;20251;-81
2023/06/05 09:24:44;;;;;;;3.30;2.80;;;;;24.80;102152.00;;;;5081108;28;20275;-80
2023/06/05 09:27:12;;;;;;;7.53;3.78;;;;;25.00;102148.00;;;;5085141;28;21216;-81
2023/06/05 09:29:40;;;;;;;4.70;3.45;;;;;25.10;102149.00;;;;5084305;28;20198;-80
2023/06/05 09:32:09;;;;;;;3.38;3.03;;;;;25.20;102147.00;;;;5086468;28;20243;-80
2023/06/05 09:34:38;;;;;;;3.33;2.80;;;;;25.30;102156.00;;;;5083752;28;20232;-81
2023/06/05 09:37:06;;;;;;;3.75;3.08;;;;;25.30;102149.00;;;;5082570;28;20572;-81
2023/06/05 09:39:36;;;;;;;4.72;4.13;;;;;25.40;102151.00;;;;5085551;28;20199;-81
2023/06/05 09:42:05;;;;;;;4.03;3.08;;;;;25.40;102143.00;;;;5083126;28;20190;-80
2023/06/05 09:44:36;;;;;;;3.45;3.15;;;;;25.50;102139.00;;;;5085069;28;20202;-81
2023/06/05 09:47:07;;;;;;;3.22;2.92;;;;;25.50;102138.00;;;;5081901;28;20198;-82
2023/06/05 09:49:47;;;;;;;3.65;2.95;;;;;25.60;102136.00;;;;5081227;28;20202;-80
2023/06/05 09:52:15;;;;;;;3.92;2.97;;;;;25.80;102126.00;;;;5086547;28;20220;-80
2023/06/05 09:54:44;;;;;;;3.65;2.78;;;;;25.90;102131.00;;;;5087528;28;20228;-80
2023/06/05 09:57:14;;;;;;;3.42;2.70;;;;;26.00;102138.00;;;;5086352;28;20226;-81
2023/06/05 09:59:51;;;;;;;3.88;2.60;;;;;26.10;102135.00;;;;5082831;28;20201;-81
2023/06/05 10:02:20;;;;;;;3.65;2.95;;;;;26.20;102130.00;;;;5081882;28;20558;-81
2023/06/05 10:04:49;;;;;;;4.60;2.92;;;;;26.30;102138.00;;;;5084822;28;20195;-80
2023/06/05 10:07:17;;;;;;;4.38;2.92;;;;;26.40;102125.00;;;;5083399;28;20716;-80
2023/06/05 10:09:49;;;;;;;4.03;2.90;;;;;26.50;102131.00;;;;5085431;28;20202;-81
2023/06/05 10:12:19;;;;;;;2.90;2.60;;;;;26.60;102131.00;;;;5083138;28;20197;-80
2023/06/05 10:14:48;;;;;;;3.60;3.00;;;;;26.60;102129.00;;;;5081759;28;20201;-81
2023/06/05 10:17:16;;;;;;;3.33;2.72;;;;;26.70;102127.00;;;;5077557;28;20195;-81
2023/06/05 10:19:44;;;;;;;4.32;2.97;;;;;26.90;102125.00;;;;5085156;28;20237;-81
2023/06/05 10:22:11;;;;;;;5.85;2.97;;;;;26.90;102118.00;;;;5086750;28;20197;-81
2023/06/05 10:24:43;;;;;;;2.72;2.45;;;;;27.00;102125.00;;;;5084685;28;20211;-81
2023/06/05 10:27:50;;;;;;;4.70;2.83;;;;;26.90;102126.00;;;;5083298;28;20194;-80
2023/06/05 10:30:48;;;;;;;3.50;2.78;;;;;27.00;102111.00;;;;5062012;28;20201;-81
2023/06/05 10:33:32;;;;;;;2.67;2.35;;;;;27.10;102111.00;;;;5078727;28;20962;-80
2023/06/05 10:36:09;;;;;;;3.83;2.85;;;;;27.20;102107.00;;;;5078614;28;20213;-79
2023/06/05 10:38:38;;;;;;;3.20;2.38;;;;;27.30;102111.00;;;;5085269;28;20634;-80
2023/06/05 10:41:06;;;;;;;2.50;2.00;;;;;27.40;102111.00;;;;5084462;28;20541;-81
2023/06/05 10:43:46;;;;;;;4.40;2.13;;;;;27.40;102108.00;;;;5081859;28;20256;-81
2023/06/05 10:46:28;;;;;;;2.78;2.38;;;;;27.40;102106.00;;;;5076157;28;20245;-81
2023/06/05 10:49:09;;;;;;;2.42;1.85;;;;;27.50;102112.00;;;;5082745;28;20202;-81
2023/06/05 10:51:39;;;;;;;2.72;2.00;;;;;27.60;102112.00;;;;5081144;28;20200;-80
2023/06/05 10:54:07;;;;;;;2.58;2.35;;;;;27.60;102112.00;;;;5084952;28;20198;-80
2023/06/05 10:56:56;;;;;;;2.92;2.22;;;;;27.60;102101.00;;;;5083966;28;20247;-80
2023/06/05 10:59:25;;;;;;;2.83;2.33;;;;;27.70;102098.00;;;;5083698;28;20223;-80
2023/06/05 11:02:24;;;;;;;3.25;2.20;;;;;27.60;102102.00;;;;5084481;28;20186;-81
2023/06/05 11:05:10;;;;;;;1.92;1.75;;;;;27.70;102094.00;;;;5084359;28;20208;-81
2023/06/05 11:07:39;;;;;;;2.63;2.25;;;;;27.80;102096.00;;;;5080616;28;20202;-81
2023/06/05 11:10:09;;;;;;;3.92;2.67;;;;;27.80;102097.00;;;;5080376;28;20187;-80
2023/06/05 11:12:59;;;;;;;2.30;2.08;;;;;27.70;102092.00;;;;5083688;28;20194;-79
2023/06/05 11:15:38;;;;;;;2.70;2.45;;;;;27.80;102093.00;;;;5084808;28;20640;-79
2023/06/05 11:18:27;;;;;;;2.70;2.13;;;;;27.80;102092.00;;;;5084068;28;20193;-79
2023/06/05 11:20:55;;;;;;;2.10;1.85;;;;;28.00;102084.00;;;;5076922;28;20672;-80
2023/06/05 11:23:27;;;;;;;4.25;2.00;;;;;28.00;102083.00;;;;5083574;28;20204;-78
2023/06/05 11:25:57;;;;;;;1.85;1.50;;;;;28.10;102091.00;;;;5081934;28;20292;-78
2023/06/05 11:28:44;;;;;;;2.28;1.95;;;;;28.00;102091.00;;;;5082016;28;20194;-78
2023/06/05 11:31:13;;;;;;;2.10;1.70;;;;;28.10;102082.00;;;;5081479;28;20219;-78
2023/06/05 11:33:40;;;;;;;2.15;1.95;;;;;28.10;102075.00;;;;5082262;28;20718;-79
2023/06/05 11:36:08;;;;;;;3.20;2.20;;;;;28.20;102079.00;;;;5081933;28;20202;-79
2023/06/05 11:38:36;;;;;;;3.45;2.22;;;;;28.20;102087.00;;;;5081326;28;20198;-78
2023/06/05 11:41:09;;;;;;;3.33;1.80;;;;;28.10;102080.00;;;;5075589;28;20237;-78
2023/06/05 11:43:43;;;;;;;1.73;1.52;;;;;28.10;102076.00;;;;5080824;28;20199;-79
2023/06/05 11:46:12;;;;;;;1.58;1.48;;;;;28.10;102073.00;;;;5076225;28;20228;-79
2023/06/05 11:48:46;;;;;;;3.50;1.95;;;;;28.00;102071.00;;;;5080948;28;20260;-78
2023/06/05 11:51:15;;;;;;;2.08;1.85;;;;;28.10;102078.00;;;;5081681;28;20213;-80
2023/06/05 11:53:47;;;;;;;5.65;2.22;;;;;28.10;102078.00;;;;5083109;28;21017;-80
2023/06/05 11:56:16;;;;;;;1.85;1.58;;;;;28.10;102079.00;;;;5085339;28;20596;-80
2023/06/05 11:58:45;;;;;;;1.67;1.50;;;;;28.10;102068.00;;;;5086825;28;20254;-79
2023/06/05 12:01:17;;;;;;;3.50;2.22;;;;;28.10;102075.00;;;;5086417;28;20668;-82
2023/06/05 12:03:45;;;;;;;3.35;1.60;;;;;28.10;102071.00;;;;5086749;28;20248;-82
2023/06/05 12:06:14;;;;;;;1.95;1.65;;;;;28.10;102059.00;;;;5086118;28;20699;-82
2023/06/05 12:08:42;;;;;;;3.72;2.53;;;;;28.10;102070.00;;;;5087486;28;20259;-82
2023/06/05 12:11:23;;;;;;;3.10;1.65;;;;;28.00;102067.00;;;;5084800;28;20266;-78
2023/06/05 12:13:52;;;;;;;4.65;2.22;;;;;28.10;102062.00;;;;5086270;28;20279;-80
2023/06/05 12:16:31;;;;;;;2.80;1.90;;;;;28.20;102063.00;;;;5084476;28;20277;-81
2023/06/05 12:18:58;;;;;;;2.58;1.67;;;;;28.20;102064.00;;;;5089436;28;20243;-81